sensor_id;sensor_type;location;lat;lon;timestamp;P1;durP1;ratioP1;P2;durP2;ratioP2
13445;SDS011;6795;51.232;3.764;2022-07-29T00:01:40;0.50;;;0.40;;
13445;SDS011;6795;51.232;3.764;2022-07-29T00:04:09;1.23;;;0.50;;
13445;SDS011;6795;51.232;3.764;2022-07-29T00:06:37;1.95;;;0.50;;
13445;SDS011;6795;51.232;3.764;2022-07-29T00:09:06;0.40;;;0.40;;
13445;SDS011;6795;51.232;3.764;2022-07-29T00:11:34;3.13;;;0.63;;
13445;SDS011;6795;51.232;3.764;2022-07-29T00:14:04;2.80;;;0.50;;
13445;SDS011;6795;51.232;3.764;2022-07-29T00:16:33;3.25;;;0.70;;
13445;SDS011;6795;51.232;3.764;2022-07-29T00:19:01;0.90;;;0.40;;
13445;SDS011;6795;51.232;3.764;2022-07-29T00:21:30;1.42;;;0.40;;
13445;SDS011;6795;51.232;3.764;2022-07-29T00:23:58;1.40;;;0.40;;
13445;SDS011;6795;51.232;3.764;2022-07-29T00:26:27;2.70;;;0.40;;
13445;SDS011;6795;51.232;3.764;2022-07-29T00:28:58;1.50;;;0.40;;
13445;SDS011;6795;51.232;3.764;2022-07-29T00:31:48;1.65;;;0.40;;
13445;SDS011;6795;51.232;3.764;2022-07-29T00:34:16;3.15;;;0.38;;
13445;SDS011;6795;51.232;3.764;2022-07-29T00:37:02;3.40;;;0.40;;
13445;SDS011;6795;51.232;3.764;2022-07-29T00:39:33;0.98;;;0.40;;
13445;SDS011;6795;51.232;3.764;2022-07-29T00:42:02;2.13;;;0.47;;
13445;SDS011;6795;51.232;3.764;2022-07-29T00:44:35;5.85;;;0.60;;
13445;SDS011;6795;51.232;3.764;2022-07-29T00:47:05;2.95;;;0.57;;
13445;SDS011;6795;51.232;3.764;2022-07-29T00:49:34;0.43;;;0.40;;
13445;SDS011;6795;51.232;3.764;2022-07-29T00:52:03;2.97;;;0.60;;
13445;SDS011;6795;51.232;3.764;2022-07-29T00:54:32;4.78;;;0.50;;
13445;SDS011;6795;51.232;3.764;2022-07-29T00:57:10;3.08;;;0.70;;
13445;SDS011;6795;51.232;3.764;2022-07-29T00:59:39;2.67;;;0.50;;
13445;SDS011;6795;51.232;3.764;2022-07-29T01:02:09;2.25;;;0.40;;
13445;SDS011;6795;51.232;3.764;2022-07-29T01:04:38;2.92;;;0.73;;
13445;SDS011;6795;51.232;3.764;2022-07-29T01:07:07;2.08;;;0.60;;
13445;SDS011;6795;51.232;3.764;2022-07-29T01:09:38;1.75;;;0.50;;
13445;SDS011;6795;51.232;3.764;2022-07-29T01:12:12;4.32;;;0.50;;
13445;SDS011;6795;51.232;3.764;2022-07-29T01:14:44;0.98;;;0.50;;
13445;SDS011;6795;51.232;3.764;2022-07-29T01:17:16;2.25;;;0.50;;
13445;SDS011;6795;51.232;3.764;2022-07-29T01:19:51;0.52;;;0.52;;
13445;SDS011;6795;51.232;3.764;2022-07-29T01:22:31;1.13;;;0.50;;
13445;SDS011;6795;51.232;3.764;2022-07-29T01:25:16;1.77;;;0.50;;
13445;SDS011;6795;51.232;3.764;2022-07-29T01:27:55;1.38;;;0.50;;
13445;SDS011;6795;51.232;3.764;2022-07-29T01:30:50;1.38;;;0.50;;
13445;SDS011;6795;51.232;3.764;2022-07-29T01:33:20;0.85;;;0.50;;
13445;SDS011;6795;51.232;3.764;2022-07-29T01:36:08;2.60;;;0.60;;
13445;SDS011;6795;51.232;3.764;2022-07-29T01:38:39;1.88;;;0.43;;
13445;SDS011;6795;51.232;3.764;2022-07-29T01:41:15;0.95;;;0.57;;
13445;SDS011;6795;51.232;3.764;2022-07-29T01:43:56;2.72;;;0.40;;
13445;SDS011;6795;51.232;3.764;2022-07-29T01:46:29;0.50;;;0.50;;
13445;SDS011;6795;51.232;3.764;2022-07-29T01:49:02;3.65;;;0.50;;
13445;SDS011;6795;51.232;3.764;2022-07-29T01:51:36;1.08;;;0.50;;
13445;SDS011;6795;51.232;3.764;2022-07-29T01:54:10;1.02;;;0.40;;
13445;SDS011;6795;51.232;3.764;2022-07-29T01:56:44;3.90;;;1.67;;
13445;SDS011;6795;51.232;3.764;2022-07-29T01:59:14;2.28;;;0.70;;
13445;SDS011;6795;51.232;3.764;2022-07-29T02:01:46;2.63;;;0.77;;
13445;SDS011;6795;51.232;3.764;2022-07-29T02:04:20;4.22;;;0.60;;
13445;SDS011;6795;51.232;3.764;2022-07-29T02:06:57;1.77;;;0.70;;
13445;SDS011;6795;51.232;3.764;2022-07-29T02:09:28;1.73;;;0.60;;
13445;SDS011;6795;51.232;3.764;2022-07-29T02:11:59;0.80;;;0.63;;
13445;SDS011;6795;51.232;3.764;2022-07-29T02:14:30;2.28;;;0.88;;
13445;SDS011;6795;51.232;3.764;2022-07-29T02:17:01;3.47;;;1.08;;
13445;SDS011;6795;51.232;3.764;2022-07-29T02:19:30;2.88;;;0.57;;
13445;SDS011;6795;51.232;3.764;2022-07-29T02:22:01;0.80;;;0.52;;
13445;SDS011;6795;51.232;3.764;2022-07-29T02:24:30;1.58;;;0.60;;
13445;SDS011;6795;51.232;3.764;2022-07-29T02:26:58;2.85;;;0.80;;
13445;SDS011;6795;51.232;3.764;2022-07-29T02:29:29;4.32;;;0.80;;
13445;SDS011;6795;51.232;3.764;2022-07-29T02:31:59;1.58;;;0.60;;
13445;SDS011;6795;51.232;3.764;2022-07-29T02:34:30;2.97;;;0.80;;
13445;SDS011;6795;51.232;3.764;2022-07-29T02:37:02;6.38;;;0.90;;
13445;SDS011;6795;51.232;3.764;2022-07-29T02:39:31;1.50;;;0.90;;
13445;SDS011;6795;51.232;3.764;2022-07-29T02:42:03;3.45;;;0.85;;
13445;SDS011;6795;51.232;3.764;2022-07-29T02:44:34;2.35;;;0.80;;
13445;SDS011;6795;51.232;3.764;2022-07-29T02:47:05;1.58;;;0.88;;
13445;SDS011;6795;51.232;3.764;2022-07-29T02:49:39;3.90;;;1.00;;
13445;SDS011;6795;51.232;3.764;2022-07-29T02:52:16;5.68;;;1.00;;
13445;SDS011;6795;51.232;3.764;2022-07-29T02:54:51;3.90;;;1.10;;
13445;SDS011;6795;51.232;3.764;2022-07-29T02:57:27;1.75;;;1.52;;
13445;SDS011;6795;51.232;3.764;2022-07-29T03:00:01;2.58;;;1.63;;
13445;SDS011;6795;51.232;3.764;2022-07-29T03:02:35;2.42;;;1.13;;
13445;SDS011;6795;51.232;3.764;2022-07-29T03:05:06;1.40;;;1.13;;
13445;SDS011;6795;51.232;3.764;2022-07-29T03:07:45;1.45;;;1.30;;
13445;SDS011;6795;51.232;3.764;2022-07-29T03:10:15;1.60;;;1.20;;
13445;SDS011;6795;51.232;3.764;2022-07-29T03:12:44;4.32;;;1.55;;
13445;SDS011;6795;51.232;3.764;2022-07-29T03:15:13;1.17;;;1.17;;
13445;SDS011;6795;51.232;3.764;2022-07-29T03:17:42;2.05;;;1.90;;
13445;SDS011;6795;51.232;3.764;2022-07-29T03:20:11;4.13;;;1.38;;
13445;SDS011;6795;51.232;3.764;2022-07-29T03:22:40;2.72;;;1.33;;
13445;SDS011;6795;51.232;3.764;2022-07-29T03:25:12;1.33;;;1.23;;
13445;SDS011;6795;51.232;3.764;2022-07-29T03:27:44;1.52;;;1.38;;
13445;SDS011;6795;51.232;3.764;2022-07-29T03:30:13;2.53;;;1.30;;
13445;SDS011;6795;51.232;3.764;2022-07-29T03:32:48;6.85;;;2.15;;
13445;SDS011;6795;51.232;3.764;2022-07-29T03:35:18;5.03;;;2.13;;
13445;SDS011;6795;51.232;3.764;2022-07-29T03:37:46;6.75;;;2.05;;
13445;SDS011;6795;51.232;3.764;2022-07-29T03:40:18;2.67;;;2.10;;
13445;SDS011;6795;51.232;3.764;2022-07-29T03:42:50;3.30;;;1.95;;
13445;SDS011;6795;51.232;3.764;2022-07-29T03:45:21;1.92;;;1.70;;
13445;SDS011;6795;51.232;3.764;2022-07-29T03:47:51;2.35;;;1.80;;
13445;SDS011;6795;51.232;3.764;2022-07-29T03:50:26;2.10;;;2.00;;
13445;SDS011;6795;51.232;3.764;2022-07-29T03:52:57;2.28;;;2.08;;
13445;SDS011;6795;51.232;3.764;2022-07-29T03:55:28;3.63;;;1.95;;
13445;SDS011;6795;51.232;3.764;2022-07-29T03:58:01;2.90;;;2.10;;
13445;SDS011;6795;51.232;3.764;2022-07-29T04:00:30;5.55;;;1.98;;
13445;SDS011;6795;51.232;3.764;2022-07-29T04:03:00;4.05;;;2.05;;
13445;SDS011;6795;51.232;3.764;2022-07-29T04:05:36;4.20;;;2.33;;
13445;SDS011;6795;51.232;3.764;2022-07-29T04:08:07;2.45;;;2.00;;
13445;SDS011;6795;51.232;3.764;2022-07-29T04:10:36;4.80;;;1.70;;
13445;SDS011;6795;51.232;3.764;2022-07-29T04:13:08;6.07;;;2.08;;
13445;SDS011;6795;51.232;3.764;2022-07-29T04:15:37;2.28;;;1.67;;
13445;SDS011;6795;51.232;3.764;2022-07-29T04:18:05;4.55;;;2.42;;
13445;SDS011;6795;51.232;3.764;2022-07-29T04:20:33;1.92;;;1.83;;
13445;SDS011;6795;51.232;3.764;2022-07-29T04:23:01;4.07;;;2.22;;
13445;SDS011;6795;51.232;3.764;2022-07-29T04:25:30;5.53;;;2.70;;
13445;SDS011;6795;51.232;3.764;2022-07-29T04:28:00;4.85;;;2.55;;
13445;SDS011;6795;51.232;3.764;2022-07-29T04:30:28;3.38;;;1.85;;
13445;SDS011;6795;51.232;3.764;2022-07-29T04:32:58;3.72;;;2.20;;
13445;SDS011;6795;51.232;3.764;2022-07-29T04:35:28;2.75;;;2.33;;
13445;SDS011;6795;51.232;3.764;2022-07-29T04:38:04;5.55;;;2.40;;
13445;SDS011;6795;51.232;3.764;2022-07-29T04:40:42;5.68;;;2.78;;
13445;SDS011;6795;51.232;3.764;2022-07-29T04:43:13;5.75;;;3.03;;
13445;SDS011;6795;51.232;3.764;2022-07-29T04:45:48;3.03;;;2.70;;
13445;SDS011;6795;51.232;3.764;2022-07-29T04:48:16;3.58;;;2.47;;
13445;SDS011;6795;51.232;3.764;2022-07-29T04:50:49;2.30;;;2.20;;
13445;SDS011;6795;51.232;3.764;2022-07-29T04:53:20;3.22;;;2.92;;
13445;SDS011;6795;51.232;3.764;2022-07-29T04:55:48;4.10;;;2.03;;
13445;SDS011;6795;51.232;3.764;2022-07-29T04:58:18;2.53;;;1.77;;
13445;SDS011;6795;51.232;3.764;2022-07-29T05:00:46;3.55;;;1.63;;
13445;SDS011;6795;51.232;3.764;2022-07-29T05:03:14;2.15;;;1.30;;
13445;SDS011;6795;51.232;3.764;2022-07-29T05:05:42;4.90;;;1.52;;
13445;SDS011;6795;51.232;3.764;2022-07-29T05:08:11;1.25;;;1.15;;
13445;SDS011;6795;51.232;3.764;2022-07-29T05:10:39;2.38;;;1.00;;
13445;SDS011;6795;51.232;3.764;2022-07-29T05:13:07;3.70;;;1.27;;
13445;SDS011;6795;51.232;3.764;2022-07-29T05:15:37;3.20;;;0.82;;
13445;SDS011;6795;51.232;3.764;2022-07-29T05:18:06;1.60;;;0.80;;
13445;SDS011;6795;51.232;3.764;2022-07-29T05:20:34;1.45;;;0.90;;
13445;SDS011;6795;51.232;3.764;2022-07-29T05:23:03;1.08;;;0.93;;
13445;SDS011;6795;51.232;3.764;2022-07-29T05:25:31;2.88;;;0.70;;
13445;SDS011;6795;51.232;3.764;2022-07-29T05:28:09;0.90;;;0.73;;
13445;SDS011;6795;51.232;3.764;2022-07-29T05:30:39;5.63;;;0.93;;
13445;SDS011;6795;51.232;3.764;2022-07-29T05:33:08;6.82;;;0.80;;
13445;SDS011;6795;51.232;3.764;2022-07-29T05:35:56;2.00;;;0.90;;
13445;SDS011;6795;51.232;3.764;2022-07-29T05:38:26;3.13;;;0.70;;
13445;SDS011;6795;51.232;3.764;2022-07-29T05:40:56;4.88;;;0.90;;
13445;SDS011;6795;51.232;3.764;2022-07-29T05:43:27;5.50;;;0.80;;
13445;SDS011;6795;51.232;3.764;2022-07-29T05:45:57;0.73;;;0.60;;
13445;SDS011;6795;51.232;3.764;2022-07-29T05:48:26;2.63;;;0.60;;
13445;SDS011;6795;51.232;3.764;2022-07-29T05:50:55;2.38;;;0.88;;
13445;SDS011;6795;51.232;3.764;2022-07-29T05:53:23;2.90;;;0.70;;
13445;SDS011;6795;51.232;3.764;2022-07-29T05:55:52;1.13;;;0.52;;
13445;SDS011;6795;51.232;3.764;2022-07-29T05:58:21;7.13;;;5.75;;
13445;SDS011;6795;51.232;3.764;2022-07-29T06:00:49;7.05;;;4.85;;
13445;SDS011;6795;51.232;3.764;2022-07-29T06:03:19;3.40;;;0.60;;
13445;SDS011;6795;51.232;3.764;2022-07-29T06:05:47;1.60;;;0.80;;
13445;SDS011;6795;51.232;3.764;2022-07-29T06:08:15;6.45;;;0.75;;
13445;SDS011;6795;51.232;3.764;2022-07-29T06:10:44;2.63;;;0.75;;
13445;SDS011;6795;51.232;3.764;2022-07-29T06:13:12;1.92;;;0.63;;
13445;SDS011;6795;51.232;3.764;2022-07-29T06:15:42;2.88;;;0.70;;
13445;SDS011;6795;51.232;3.764;2022-07-29T06:18:12;0.77;;;0.63;;
13445;SDS011;6795;51.232;3.764;2022-07-29T06:20:41;2.00;;;0.73;;
13445;SDS011;6795;51.232;3.764;2022-07-29T06:23:10;1.50;;;0.70;;
13445;SDS011;6795;51.232;3.764;2022-07-29T06:25:39;6.15;;;1.40;;
13445;SDS011;6795;51.232;3.764;2022-07-29T06:28:07;2.70;;;0.77;;
13445;SDS011;6795;51.232;3.764;2022-07-29T06:30:35;2.25;;;0.77;;
13445;SDS011;6795;51.232;3.764;2022-07-29T06:33:04;3.70;;;0.70;;
13445;SDS011;6795;51.232;3.764;2022-07-29T06:35:33;2.90;;;0.90;;
13445;SDS011;6795;51.232;3.764;2022-07-29T06:38:10;1.45;;;0.63;;
13445;SDS011;6795;51.232;3.764;2022-07-29T06:40:59;2.13;;;0.88;;
13445;SDS011;6795;51.232;3.764;2022-07-29T06:43:32;2.10;;;0.80;;
13445;SDS011;6795;51.232;3.764;2022-07-29T06:46:18;1.38;;;0.98;;
13445;SDS011;6795;51.232;3.764;2022-07-29T06:48:48;1.75;;;0.70;;
13445;SDS011;6795;51.232;3.764;2022-07-29T06:51:18;2.88;;;0.70;;
13445;SDS011;6795;51.232;3.764;2022-07-29T06:53:50;1.23;;;1.05;;
13445;SDS011;6795;51.232;3.764;2022-07-29T06:56:28;1.27;;;0.88;;
13445;SDS011;6795;51.232;3.764;2022-07-29T06:59:04;3.70;;;0.75;;
13445;SDS011;6795;51.232;3.764;2022-07-29T07:01:32;2.28;;;1.02;;
13445;SDS011;6795;51.232;3.764;2022-07-29T07:04:01;2.60;;;0.65;;
13445;SDS011;6795;51.232;3.764;2022-07-29T07:06:29;1.65;;;0.68;;
13445;SDS011;6795;51.232;3.764;2022-07-29T07:08:59;2.17;;;0.63;;
13445;SDS011;6795;51.232;3.764;2022-07-29T07:11:28;5.75;;;1.05;;
13445;SDS011;6795;51.232;3.764;2022-07-29T07:13:57;4.00;;;0.98;;
13445;SDS011;6795;51.232;3.764;2022-07-29T07:16:39;4.00;;;1.00;;
13445;SDS011;6795;51.232;3.764;2022-07-29T07:19:08;3.90;;;0.70;;
13445;SDS011;6795;51.232;3.764;2022-07-29T07:21:40;0.95;;;0.70;;
13445;SDS011;6795;51.232;3.764;2022-07-29T07:24:10;1.58;;;0.75;;
13445;SDS011;6795;51.232;3.764;2022-07-29T07:26:39;3.53;;;0.80;;
13445;SDS011;6795;51.232;3.764;2022-07-29T07:29:07;4.80;;;1.10;;
13445;SDS011;6795;51.232;3.764;2022-07-29T07:31:36;2.33;;;0.80;;
13445;SDS011;6795;51.232;3.764;2022-07-29T07:34:04;3.30;;;0.80;;
13445;SDS011;6795;51.232;3.764;2022-07-29T07:36:33;2.35;;;0.88;;
13445;SDS011;6795;51.232;3.764;2022-07-29T07:39:01;3.00;;;0.93;;
13445;SDS011;6795;51.232;3.764;2022-07-29T07:41:32;2.70;;;0.80;;
13445;SDS011;6795;51.232;3.764;2022-07-29T07:44:01;4.70;;;1.00;;
13445;SDS011;6795;51.232;3.764;2022-07-29T07:46:29;1.80;;;1.13;;
13445;SDS011;6795;51.232;3.764;2022-07-29T07:48:57;1.48;;;1.20;;
13445;SDS011;6795;51.232;3.764;2022-07-29T07:51:26;2.00;;;1.15;;
13445;SDS011;6795;51.232;3.764;2022-07-29T07:53:54;3.20;;;1.15;;
13445;SDS011;6795;51.232;3.764;2022-07-29T07:56:23;2.33;;;1.15;;
13445;SDS011;6795;51.232;3.764;2022-07-29T07:58:55;3.10;;;0.90;;
13445;SDS011;6795;51.232;3.764;2022-07-29T08:01:24;1.38;;;0.80;;
13445;SDS011;6795;51.232;3.764;2022-07-29T08:03:52;3.05;;;0.90;;
13445;SDS011;6795;51.232;3.764;2022-07-29T08:06:20;3.97;;;0.95;;
13445;SDS011;6795;51.232;3.764;2022-07-29T08:08:50;2.28;;;0.85;;
13445;SDS011;6795;51.232;3.764;2022-07-29T08:11:21;3.40;;;1.25;;
13445;SDS011;6795;51.232;3.764;2022-07-29T08:13:50;1.17;;;0.80;;
13445;SDS011;6795;51.232;3.764;2022-07-29T08:16:20;1.20;;;0.70;;
13445;SDS011;6795;51.232;3.764;2022-07-29T08:18:48;1.13;;;0.80;;
13445;SDS011;6795;51.232;3.764;2022-07-29T08:21:17;2.90;;;1.17;;
13445;SDS011;6795;51.232;3.764;2022-07-29T08:23:46;1.17;;;0.93;;
13445;SDS011;6795;51.232;3.764;2022-07-29T08:26:25;1.98;;;0.90;;
13445;SDS011;6795;51.232;3.764;2022-07-29T08:28:53;2.08;;;0.70;;
13445;SDS011;6795;51.232;3.764;2022-07-29T08:31:23;1.77;;;1.00;;
13445;SDS011;6795;51.232;3.764;2022-07-29T08:33:52;1.55;;;1.00;;
13445;SDS011;6795;51.232;3.764;2022-07-29T08:36:22;1.05;;;0.80;;
13445;SDS011;6795;51.232;3.764;2022-07-29T08:38:51;0.80;;;0.80;;
13445;SDS011;6795;51.232;3.764;2022-07-29T08:41:19;1.50;;;0.57;;
13445;SDS011;6795;51.232;3.764;2022-07-29T08:43:48;3.30;;;0.90;;
13445;SDS011;6795;51.232;3.764;2022-07-29T08:46:18;1.65;;;1.20;;
13445;SDS011;6795;51.232;3.764;2022-07-29T08:48:48;1.52;;;0.90;;
13445;SDS011;6795;51.232;3.764;2022-07-29T08:51:17;2.67;;;0.70;;
13445;SDS011;6795;51.232;3.764;2022-07-29T08:53:47;3.75;;;0.70;;
13445;SDS011;6795;51.232;3.764;2022-07-29T08:56:17;3.85;;;0.70;;
13445;SDS011;6795;51.232;3.764;2022-07-29T08:58:47;1.33;;;0.70;;
13445;SDS011;6795;51.232;3.764;2022-07-29T09:01:21;1.95;;;0.43;;
13445;SDS011;6795;51.232;3.764;2022-07-29T09:04:06;1.45;;;0.40;;
13445;SDS011;6795;51.232;3.764;2022-07-29T09:06:39;2.65;;;0.70;;
13445;SDS011;6795;51.232;3.764;2022-07-29T09:09:13;1.80;;;0.55;;
13445;SDS011;6795;51.232;3.764;2022-07-29T09:11:42;1.40;;;0.32;;
13445;SDS011;6795;51.232;3.764;2022-07-29T09:14:14;2.15;;;0.40;;
13445;SDS011;6795;51.232;3.764;2022-07-29T09:16:50;2.78;;;0.70;;
13445;SDS011;6795;51.232;3.764;2022-07-29T09:19:26;1.13;;;0.60;;
13445;SDS011;6795;51.232;3.764;2022-07-29T09:21:56;3.83;;;0.80;;
13445;SDS011;6795;51.232;3.764;2022-07-29T09:24:25;0.77;;;0.68;;
13445;SDS011;6795;51.232;3.764;2022-07-29T09:27:20;1.58;;;0.68;;
13445;SDS011;6795;51.232;3.764;2022-07-29T09:29:56;0.73;;;0.70;;
13445;SDS011;6795;51.232;3.764;2022-07-29T09:32:25;2.25;;;0.68;;
13445;SDS011;6795;51.232;3.764;2022-07-29T09:37:48;2.00;;;0.82;;
13445;SDS011;6795;51.232;3.764;2022-07-29T09:40:18;6.70;;;1.10;;
13445;SDS011;6795;51.232;3.764;2022-07-29T09:42:47;1.77;;;0.70;;
13445;SDS011;6795;51.232;3.764;2022-07-29T09:45:26;2.95;;;0.60;;
13445;SDS011;6795;51.232;3.764;2022-07-29T09:47:56;0.73;;;0.60;;
13445;SDS011;6795;51.232;3.764;2022-07-29T09:50:38;2.80;;;0.50;;
13445;SDS011;6795;51.232;3.764;2022-07-29T09:53:10;2.97;;;1.27;;
13445;SDS011;6795;51.232;3.764;2022-07-29T09:55:45;1.10;;;0.50;;
13445;SDS011;6795;51.232;3.764;2022-07-29T09:58:17;1.95;;;0.95;;
13445;SDS011;6795;51.232;3.764;2022-07-29T10:00:48;1.38;;;0.70;;
13445;SDS011;6795;51.232;3.764;2022-07-29T10:03:17;3.55;;;1.40;;
13445;SDS011;6795;51.232;3.764;2022-07-29T10:06:03;3.35;;;0.82;;
13445;SDS011;6795;51.232;3.764;2022-07-29T10:08:32;2.55;;;0.90;;
13445;SDS011;6795;51.232;3.764;2022-07-29T10:11:11;2.78;;;1.00;;
13445;SDS011;6795;51.232;3.764;2022-07-29T10:13:41;1.85;;;0.80;;
13445;SDS011;6795;51.232;3.764;2022-07-29T10:16:12;1.58;;;0.60;;
13445;SDS011;6795;51.232;3.764;2022-07-29T10:18:42;0.77;;;0.77;;
13445;SDS011;6795;51.232;3.764;2022-07-29T10:21:14;1.88;;;0.60;;
13445;SDS011;6795;51.232;3.764;2022-07-29T10:24:01;5.72;;;1.42;;
13445;SDS011;6795;51.232;3.764;2022-07-29T10:26:31;1.02;;;0.70;;
13445;SDS011;6795;51.232;3.764;2022-07-29T10:29:00;1.95;;;0.77;;
13445;SDS011;6795;51.232;3.764;2022-07-29T10:31:29;3.22;;;0.98;;
13445;SDS011;6795;51.232;3.764;2022-07-29T10:34:05;1.52;;;0.80;;
13445;SDS011;6795;51.232;3.764;2022-07-29T10:36:47;0.98;;;0.70;;
13445;SDS011;6795;51.232;3.764;2022-07-29T10:39:27;2.80;;;0.80;;
13445;SDS011;6795;51.232;3.764;2022-07-29T10:42:16;2.75;;;1.10;;
13445;SDS011;6795;51.232;3.764;2022-07-29T10:44:59;2.38;;;1.35;;
13445;SDS011;6795;51.232;3.764;2022-07-29T10:47:31;1.63;;;0.80;;
13445;SDS011;6795;51.232;3.764;2022-07-29T10:50:01;2.25;;;0.90;;
13445;SDS011;6795;51.232;3.764;2022-07-29T10:55:33;2.42;;;1.00;;
13445;SDS011;6795;51.232;3.764;2022-07-29T10:58:16;2.65;;;1.27;;
13445;SDS011;6795;51.232;3.764;2022-07-29T11:00:45;1.88;;;1.10;;
13445;SDS011;6795;51.232;3.764;2022-07-29T11:06:19;3.08;;;0.60;;
13445;SDS011;6795;51.232;3.764;2022-07-29T11:12:03;2.92;;;1.02;;
13445;SDS011;6795;51.232;3.764;2022-07-29T11:20:43;1.90;;;0.60;;
13445;SDS011;6795;51.232;3.764;2022-07-29T11:23:18;2.72;;;0.90;;
13445;SDS011;6795;51.232;3.764;2022-07-29T11:28:50;2.53;;;0.70;;
13445;SDS011;6795;51.232;3.764;2022-07-29T11:31:33;2.30;;;0.50;;
13445;SDS011;6795;51.232;3.764;2022-07-29T11:34:17;1.70;;;0.65;;
13445;SDS011;6795;51.232;3.764;2022-07-29T11:42:49;0.85;;;0.77;;
13445;SDS011;6795;51.232;3.764;2022-07-29T11:45:25;1.45;;;0.90;;
13445;SDS011;6795;51.232;3.764;2022-07-29T11:48:14;2.25;;;0.60;;
13445;SDS011;6795;51.232;3.764;2022-07-29T11:50:58;4.30;;;0.82;;
13445;SDS011;6795;51.232;3.764;2022-07-29T11:53:28;2.67;;;0.80;;
13445;SDS011;6795;51.232;3.764;2022-07-29T11:55:59;3.47;;;1.13;;
13445;SDS011;6795;51.232;3.764;2022-07-29T11:58:30;1.90;;;0.90;;
13445;SDS011;6795;51.232;3.764;2022-07-29T12:00:59;2.22;;;0.60;;
13445;SDS011;6795;51.232;3.764;2022-07-29T12:03:31;3.03;;;1.15;;
13445;SDS011;6795;51.232;3.764;2022-07-29T12:06:03;2.22;;;0.88;;
13445;SDS011;6795;51.232;3.764;2022-07-29T12:08:40;2.53;;;1.10;;
13445;SDS011;6795;51.232;3.764;2022-07-29T12:11:16;5.45;;;0.60;;
13445;SDS011;6795;51.232;3.764;2022-07-29T12:13:49;3.55;;;0.63;;
13445;SDS011;6795;51.232;3.764;2022-07-29T12:16:18;2.80;;;1.38;;
13445;SDS011;6795;51.232;3.764;2022-07-29T12:18:55;2.25;;;0.75;;
13445;SDS011;6795;51.232;3.764;2022-07-29T12:21:25;3.92;;;1.55;;
13445;SDS011;6795;51.232;3.764;2022-07-29T12:23:55;1.48;;;1.25;;
13445;SDS011;6795;51.232;3.764;2022-07-29T12:26:34;1.20;;;0.75;;
13445;SDS011;6795;51.232;3.764;2022-07-29T12:29:07;1.33;;;0.82;;
13445;SDS011;6795;51.232;3.764;2022-07-29T12:31:59;4.00;;;1.40;;
13445;SDS011;6795;51.232;3.764;2022-07-29T12:34:28;1.73;;;0.70;;
13445;SDS011;6795;51.232;3.764;2022-07-29T12:36:57;4.13;;;1.00;;
13445;SDS011;6795;51.232;3.764;2022-07-29T12:39:26;3.45;;;1.20;;
13445;SDS011;6795;51.232;3.764;2022-07-29T12:41:54;1.63;;;0.90;;
13445;SDS011;6795;51.232;3.764;2022-07-29T12:44:44;6.68;;;1.10;;
13445;SDS011;6795;51.232;3.764;2022-07-29T12:47:14;2.03;;;0.93;;
13445;SDS011;6795;51.232;3.764;2022-07-29T12:49:42;3.45;;;0.85;;
13445;SDS011;6795;51.232;3.764;2022-07-29T12:52:24;3.33;;;0.60;;
13445;SDS011;6795;51.232;3.764;2022-07-29T12:54:54;1.58;;;0.70;;
13445;SDS011;6795;51.232;3.764;2022-07-29T12:57:22;3.83;;;1.30;;
13445;SDS011;6795;51.232;3.764;2022-07-29T13:00:05;3.35;;;1.25;;
13445;SDS011;6795;51.232;3.764;2022-07-29T13:02:37;1.48;;;1.20;;
13445;SDS011;6795;51.232;3.764;2022-07-29T13:05:06;2.83;;;0.70;;
13445;SDS011;6795;51.232;3.764;2022-07-29T13:07:36;3.60;;;0.70;;
13445;SDS011;6795;51.232;3.764;2022-07-29T13:10:22;4.15;;;0.70;;
13445;SDS011;6795;51.232;3.764;2022-07-29T13:13:04;3.08;;;0.90;;
13445;SDS011;6795;51.232;3.764;2022-07-29T13:15:37;4.72;;;1.00;;
13445;SDS011;6795;51.232;3.764;2022-07-29T13:20:57;2.88;;;0.82;;
13445;SDS011;6795;51.232;3.764;2022-07-29T13:23:39;1.45;;;0.82;;
13445;SDS011;6795;51.232;3.764;2022-07-29T13:26:07;1.33;;;0.55;;
13445;SDS011;6795;51.232;3.764;2022-07-29T13:28:36;0.50;;;0.50;;
13445;SDS011;6795;51.232;3.764;2022-07-29T13:31:11;0.95;;;0.73;;
13445;SDS011;6795;51.232;3.764;2022-07-29T13:33:39;3.05;;;0.70;;
13445;SDS011;6795;51.232;3.764;2022-07-29T13:36:07;1.10;;;0.60;;
13445;SDS011;6795;51.232;3.764;2022-07-29T13:38:36;3.22;;;0.70;;
13445;SDS011;6795;51.232;3.764;2022-07-29T13:41:04;3.92;;;0.70;;
13445;SDS011;6795;51.232;3.764;2022-07-29T13:43:33;4.57;;;0.70;;
13445;SDS011;6795;51.232;3.764;2022-07-29T13:46:01;1.40;;;0.70;;
13445;SDS011;6795;51.232;3.764;2022-07-29T13:48:30;1.35;;;0.90;;
13445;SDS011;6795;51.232;3.764;2022-07-29T13:50:59;3.88;;;0.70;;
13445;SDS011;6795;51.232;3.764;2022-07-29T13:53:27;3.25;;;0.90;;
13445;SDS011;6795;51.232;3.764;2022-07-29T13:55:55;2.17;;;0.60;;
13445;SDS011;6795;51.232;3.764;2022-07-29T13:58:26;0.82;;;0.68;;
13445;SDS011;6795;51.232;3.764;2022-07-29T14:00:55;2.22;;;0.68;;
13445;SDS011;6795;51.232;3.764;2022-07-29T14:03:24;1.23;;;0.60;;
13445;SDS011;6795;51.232;3.764;2022-07-29T14:05:54;1.50;;;0.52;;
13445;SDS011;6795;51.232;3.764;2022-07-29T14:08:26;1.88;;;1.10;;
13445;SDS011;6795;51.232;3.764;2022-07-29T14:10:55;4.68;;;0.80;;
13445;SDS011;6795;51.232;3.764;2022-07-29T14:13:23;1.52;;;0.80;;
13445;SDS011;6795;51.232;3.764;2022-07-29T14:15:52;4.35;;;0.82;;
13445;SDS011;6795;51.232;3.764;2022-07-29T14:18:20;1.65;;;0.50;;
13445;SDS011;6795;51.232;3.764;2022-07-29T14:20:49;2.10;;;0.80;;
13445;SDS011;6795;51.232;3.764;2022-07-29T14:23:18;2.15;;;0.50;;
13445;SDS011;6795;51.232;3.764;2022-07-29T14:25:47;2.70;;;0.70;;
13445;SDS011;6795;51.232;3.764;2022-07-29T14:28:15;1.05;;;0.50;;
13445;SDS011;6795;51.232;3.764;2022-07-29T14:30:43;3.85;;;0.70;;
13445;SDS011;6795;51.232;3.764;2022-07-29T14:33:15;0.95;;;0.57;;
13445;SDS011;6795;51.232;3.764;2022-07-29T14:35:44;4.32;;;0.40;;
13445;SDS011;6795;51.232;3.764;2022-07-29T14:38:12;2.75;;;0.60;;
13445;SDS011;6795;51.232;3.764;2022-07-29T14:40:42;0.88;;;0.60;;
13445;SDS011;6795;51.232;3.764;2022-07-29T14:43:16;3.60;;;0.60;;
13445;SDS011;6795;51.232;3.764;2022-07-29T14:45:47;1.55;;;0.55;;
13445;SDS011;6795;51.232;3.764;2022-07-29T14:48:17;2.65;;;0.60;;
13445;SDS011;6795;51.232;3.764;2022-07-29T14:50:47;3.20;;;0.75;;
13445;SDS011;6795;51.232;3.764;2022-07-29T14:53:17;1.90;;;0.57;;
13445;SDS011;6795;51.232;3.764;2022-07-29T14:55:47;1.25;;;0.70;;
13445;SDS011;6795;51.232;3.764;2022-07-29T14:58:16;2.80;;;0.55;;
13445;SDS011;6795;51.232;3.764;2022-07-29T15:00:46;1.15;;;0.50;;
13445;SDS011;6795;51.232;3.764;2022-07-29T15:03:14;2.70;;;0.55;;
13445;SDS011;6795;51.232;3.764;2022-07-29T15:05:49;3.97;;;0.70;;
13445;SDS011;6795;51.232;3.764;2022-07-29T15:08:18;2.10;;;0.60;;
13445;SDS011;6795;51.232;3.764;2022-07-29T15:10:51;1.40;;;0.60;;
13445;SDS011;6795;51.232;3.764;2022-07-29T15:13:23;1.70;;;0.85;;
13445;SDS011;6795;51.232;3.764;2022-07-29T15:15:52;1.13;;;0.65;;
13445;SDS011;6795;51.232;3.764;2022-07-29T15:18:25;2.83;;;0.80;;
13445;SDS011;6795;51.232;3.764;2022-07-29T15:20:54;2.17;;;0.65;;
13445;SDS011;6795;51.232;3.764;2022-07-29T15:23:22;2.75;;;0.60;;
13445;SDS011;6795;51.232;3.764;2022-07-29T15:25:52;1.08;;;0.55;;
13445;SDS011;6795;51.232;3.764;2022-07-29T15:28:20;1.90;;;0.70;;
13445;SDS011;6795;51.232;3.764;2022-07-29T15:30:48;1.65;;;0.60;;
13445;SDS011;6795;51.232;3.764;2022-07-29T15:33:17;2.25;;;0.40;;
13445;SDS011;6795;51.232;3.764;2022-07-29T15:35:45;0.98;;;0.45;;
13445;SDS011;6795;51.232;3.764;2022-07-29T15:38:13;1.45;;;0.40;;
13445;SDS011;6795;51.232;3.764;2022-07-29T15:40:44;1.05;;;0.50;;
13445;SDS011;6795;51.232;3.764;2022-07-29T15:43:14;0.95;;;0.50;;
13445;SDS011;6795;51.232;3.764;2022-07-29T15:45:42;1.40;;;0.55;;
13445;SDS011;6795;51.232;3.764;2022-07-29T15:48:32;2.30;;;0.43;;
13445;SDS011;6795;51.232;3.764;2022-07-29T15:51:00;3.17;;;0.40;;
13445;SDS011;6795;51.232;3.764;2022-07-29T15:53:29;2.67;;;0.55;;
13445;SDS011;6795;51.232;3.764;2022-07-29T15:55:58;2.92;;;0.70;;
13445;SDS011;6795;51.232;3.764;2022-07-29T15:58:28;1.65;;;0.50;;